createdAt,value
2018-07-14T00:00:43.801Z,17.07
2018-07-14T00:05:47.491Z,13.50
2018-07-14T00:10:51.007Z,11.50
2018-07-14T00:15:54.786Z,13.73
2018-07-14T00:20:58.556Z,17.37
2018-07-14T00:26:02.897Z,13.23
2018-07-14T00:31:06.469Z,18.33
2018-07-14T00:36:10.125Z,12.93
2018-07-14T00:41:13.612Z,18.30
2018-07-14T00:46:17.153Z,14.60
2018-07-14T00:51:20.876Z,15.83
2018-07-14T00:56:24.430Z,16.90
2018-07-14T01:01:28.261Z,15.03
2018-07-14T01:06:33.293Z,13.57
2018-07-14T01:11:36.800Z,17.17
2018-07-14T01:16:41.543Z,17.83
2018-07-14T01:21:45.732Z,13.77
2018-07-14T01:26:50.099Z,17.37
2018-07-14T01:31:53.683Z,14.77
2018-07-14T01:36:57.828Z,16.77
2018-07-14T01:42:01.296Z,17.53
2018-07-14T01:47:04.971Z,20.37
2018-07-14T01:52:08.644Z,15.60
2018-07-14T01:57:12.259Z,17.40
2018-07-14T02:02:16.029Z,14.80
2018-07-14T02:07:19.607Z,16.10
2018-07-14T02:12:23.141Z,17.37
2018-07-14T02:17:27.094Z,18.33
2018-07-14T02:22:31.406Z,16.77
2018-07-14T02:27:35.187Z,18.40
2018-07-14T02:32:39.523Z,19.47
2018-07-14T02:37:43.141Z,17.80
2018-07-14T02:42:46.646Z,15.10
2018-07-14T02:47:50.481Z,17.93
2018-07-14T02:52:54.817Z,17.10
2018-07-14T02:57:58.389Z,17.10
2018-07-14T03:03:01.889Z,18.03
2018-07-14T03:08:05.681Z,20.63
2018-07-14T03:13:09.308Z,18.97
2018-07-14T03:18:12.895Z,17.63
2018-07-14T03:23:17.317Z,17.57
2018-07-14T03:28:21.141Z,24.47
2018-07-14T03:33:24.625Z,21.50
2018-07-14T03:38:28.354Z,18.37
2018-07-14T03:43:33.184Z,22.70
2018-07-14T03:48:36.762Z,16.73
2018-07-14T03:53:40.250Z,18.97
2018-07-14T03:58:43.862Z,25.30
2018-07-14T04:03:47.593Z,25.37
2018-07-14T04:08:51.222Z,22.33
2018-07-14T04:13:54.833Z,19.60
2018-07-14T04:18:59.012Z,18.40
2018-07-14T04:24:02.592Z,17.43
2018-07-14T04:29:07.044Z,18.17
2018-07-14T04:34:10.616Z,18.33
2018-07-14T04:39:14.189Z,18.00
2018-07-14T04:44:17.729Z,17.53
2018-07-14T04:49:21.560Z,25.50
2018-07-14T04:54:25.080Z,18.30
2018-07-14T04:59:28.879Z,19.77
2018-07-14T05:04:32.449Z,16.13
2018-07-14T05:09:36.140Z,15.43
2018-07-14T05:14:39.666Z,23.27
2018-07-14T05:19:43.252Z,13.83
2018-07-14T05:24:46.815Z,14.70
2018-07-14T05:29:50.861Z,19.47
2018-07-14T05:34:54.406Z,15.80
2018-07-14T05:39:57.977Z,30.40
2018-07-14T05:45:01.485Z,24.53
2018-07-14T05:50:05.859Z,24.93
2018-07-14T05:55:09.709Z,14.27
2018-07-14T06:00:14.100Z,13.37
2018-07-14T06:05:17.689Z,13.50
2018-07-14T06:10:21.317Z,14.93
2018-07-14T06:15:24.828Z,16.20
2018-07-14T06:20:28.792Z,15.20
2018-07-14T06:25:32.829Z,13.63
2018-07-14T06:30:37.108Z,11.53
2018-07-14T06:35:40.786Z,13.20
2018-07-14T06:40:45.067Z,19.27
2018-07-14T06:45:48.555Z,13.37
2018-07-14T06:50:52.807Z,16.27
2018-07-14T06:55:56.389Z,14.30
2018-07-14T07:00:59.965Z,13.45
2018-07-14T07:06:03.511Z,15.13
2018-07-14T07:11:07.077Z,13.57
2018-07-14T07:16:10.584Z,8.97
2018-07-14T07:21:14.841Z,13.00
2018-07-14T07:26:18.347Z,10.10
2018-07-14T07:31:21.901Z,9.37
2018-07-14T07:36:25.587Z,8.90
2018-07-14T07:41:29.146Z,9.67
2018-07-14T07:46:32.682Z,10.00
2018-07-14T07:51:36.264Z,8.07
2018-07-14T07:56:39.819Z,9.70
2018-07-14T08:01:43.619Z,9.37
2018-07-14T08:06:47.170Z,9.37
2018-07-14T08:11:50.777Z,8.63
2018-07-14T08:16:54.238Z,9.50
2018-07-14T08:21:57.771Z,9.73
2018-07-14T08:27:01.338Z,7.40
2018-07-14T08:32:05.148Z,9.53
2018-07-14T08:37:09.172Z,9.13
2018-07-14T08:42:13.915Z,10.70
2018-07-14T08:47:17.452Z,8.47
2018-07-14T08:52:21.671Z,6.50
2018-07-14T08:57:26.019Z,8.37
2018-07-14T09:02:30.990Z,8.90
2018-07-14T09:07:34.491Z,8.90
2018-07-14T09:12:38.038Z,9.87
2018-07-14T09:17:41.744Z,9.90
2018-07-14T09:22:45.316Z,9.67
2018-07-14T09:27:49.356Z,7.30
2018-07-14T09:32:52.934Z,10.40
2018-07-14T09:37:56.502Z,9.87
2018-07-14T09:43:00.674Z,8.97
2018-07-14T09:48:04.212Z,9.90
2018-07-14T09:53:07.911Z,10.33
2018-07-14T09:58:11.436Z,6.43
2018-07-14T10:03:15.053Z,8.37
2018-07-14T10:08:19.265Z,8.27
2018-07-14T10:13:24.055Z,8.67
2018-07-14T10:18:28.197Z,7.27
2018-07-14T10:23:31.801Z,7.30
2018-07-14T10:28:35.293Z,8.83
2018-07-14T10:33:39.124Z,7.30
2018-07-14T10:38:44.333Z,7.87
2018-07-14T10:43:48.210Z,6.13
2018-07-14T10:48:51.676Z,5.90
2018-07-14T10:53:55.250Z,6.40
2018-07-14T10:59:03.796Z,11.63
2018-07-14T11:04:09.892Z,8.37
2018-07-14T11:09:15.702Z,8.57
2018-07-14T11:14:20.297Z,9.50
2018-07-14T11:19:23.845Z,6.00
2018-07-14T11:24:27.422Z,6.90
2018-07-14T11:29:31.078Z,5.67
2018-07-14T11:34:34.954Z,5.97
2018-07-14T11:39:38.833Z,8.10
2018-07-14T11:44:47.145Z,7.37
2018-07-14T11:49:50.729Z,10.10
2018-07-14T11:54:54.408Z,8.60
2018-07-14T11:59:58.021Z,11.97
2018-07-14T12:05:02.960Z,7.70
2018-07-14T12:10:07.197Z,7.87
2018-07-14T12:15:11.958Z,8.43
2018-07-14T12:20:16.035Z,9.43
2018-07-14T12:25:19.634Z,8.27
2018-07-14T12:30:28.626Z,9.80
2018-07-14T12:35:32.156Z,8.10
2018-07-14T12:40:36.430Z,8.13
2018-07-14T12:45:39.945Z,9.33
2018-07-14T12:50:43.549Z,8.30
2018-07-14T12:55:47.252Z,10.10
2018-07-14T13:00:50.942Z,7.50
2018-07-14T13:05:54.749Z,7.90
2018-07-14T13:10:58.290Z,10.37
2018-07-14T13:16:01.829Z,10.23
2018-07-14T13:21:05.320Z,9.53
2018-07-14T13:26:09.766Z,10.03
2018-07-14T13:31:13.299Z,10.30
2018-07-14T13:36:16.900Z,8.63
2018-07-14T13:41:20.392Z,7.60
2018-07-14T13:46:24.389Z,8.30
2018-07-14T13:51:27.912Z,12.67
2018-07-14T13:56:31.487Z,10.43
2018-07-14T14:01:35.021Z,7.77
2018-07-14T14:06:40.272Z,6.90
2018-07-14T14:11:43.855Z,7.83
2018-07-14T14:16:47.428Z,6.97
2018-07-14T14:21:51.822Z,6.37
2018-07-14T14:26:55.437Z,8.10
2018-07-14T14:31:59.288Z,7.67
2018-07-14T14:37:03.616Z,6.77
2018-07-14T14:42:07.445Z,8.90
2018-07-14T14:47:10.998Z,7.27
2018-07-14T14:52:14.593Z,5.07
2018-07-14T14:57:18.198Z,6.20
2018-07-14T15:02:21.750Z,7.80
2018-07-14T15:07:25.415Z,5.07
2018-07-14T15:12:30.720Z,5.83
2018-07-14T15:17:34.933Z,5.50
2018-07-14T15:22:38.544Z,4.83
2018-07-14T15:27:42.122Z,6.17
2018-07-14T15:32:46.295Z,6.93
2018-07-14T15:37:50.312Z,4.90
2018-07-14T15:42:53.766Z,5.30
2018-07-14T15:47:57.343Z,5.33
2018-07-14T15:53:00.877Z,5.97
2018-07-14T15:58:04.575Z,4.20
2018-07-14T16:03:08.736Z,4.70
2018-07-14T16:08:12.667Z,5.20
2018-07-14T16:13:16.205Z,4.90
2018-07-14T16:18:20.709Z,4.33
2018-07-14T16:23:24.213Z,4.73
2018-07-14T16:28:27.826Z,4.20
2018-07-14T16:33:31.377Z,4.73
2018-07-14T16:38:35.159Z,3.70
2018-07-14T16:43:38.882Z,4.10
2018-07-14T16:48:43.178Z,6.60
2018-07-14T16:53:47.481Z,4.77
2018-07-14T16:58:51.097Z,4.00
2018-07-14T17:03:54.719Z,4.23
2018-07-14T17:08:59.460Z,3.63
2018-07-14T17:14:03.260Z,3.67
2018-07-14T17:19:07.144Z,3.80
2018-07-14T17:24:11.093Z,5.00
2018-07-14T17:29:14.927Z,4.17
2018-07-14T17:34:18.472Z,4.90
2018-07-14T17:39:22.057Z,3.70
2018-07-14T17:44:25.541Z,4.93
2018-07-14T17:49:30.634Z,5.60
2018-07-14T17:54:34.892Z,5.43
2018-07-14T17:59:39.214Z,6.83
2018-07-14T18:04:43.013Z,3.13
2018-07-14T18:09:46.525Z,3.77
2018-07-14T18:14:50.038Z,5.43
2018-07-14T18:19:53.825Z,3.50
2018-07-14T18:24:57.313Z,3.67
2018-07-14T18:30:01.049Z,3.70
2018-07-14T18:35:04.685Z,4.63
2018-07-14T18:40:08.331Z,5.83
2018-07-14T18:45:11.877Z,3.97
2018-07-14T18:50:15.565Z,3.40
2018-07-14T18:55:19.052Z,3.87
2018-07-14T19:00:27.906Z,3.93
2018-07-14T19:05:31.498Z,3.67
2018-07-14T19:10:35.071Z,3.83
2018-07-14T19:15:38.527Z,3.43
2018-07-14T19:20:42.192Z,3.63
2018-07-14T19:25:46.502Z,3.60
2018-07-14T19:30:50.255Z,2.87
2018-07-14T19:35:53.875Z,6.27
2018-07-14T19:40:57.702Z,4.07
2018-07-14T19:46:01.543Z,3.07
2018-07-14T19:51:05.190Z,4.63
2018-07-14T19:56:08.866Z,4.33
2018-07-14T20:01:12.412Z,4.70
2018-07-14T20:06:15.876Z,4.07
2018-07-14T20:11:19.455Z,4.23
2018-07-14T20:16:24.522Z,4.73
2018-07-14T20:21:29.827Z,3.77
2018-07-14T20:26:34.085Z,4.20
2018-07-14T20:31:37.787Z,4.00
2018-07-14T20:36:41.357Z,3.50
2018-07-14T20:41:45.198Z,4.37
2018-07-14T20:46:48.873Z,5.03
2018-07-14T20:51:52.845Z,6.97
2018-07-14T20:56:56.366Z,5.33
2018-07-14T21:02:00.114Z,5.17
2018-07-14T21:07:03.707Z,6.57
2018-07-14T21:12:08.456Z,5.97
2018-07-14T21:17:12.109Z,7.07
2018-07-14T21:22:15.634Z,6.33
2018-07-14T21:27:19.279Z,6.00
2018-07-14T21:32:22.828Z,5.60
2018-07-14T21:37:26.548Z,5.60
2018-07-14T21:42:30.091Z,5.83
2018-07-14T21:47:33.726Z,5.90
2018-07-14T21:52:37.313Z,7.17
2018-07-14T21:57:40.860Z,4.37
2018-07-14T22:02:45.904Z,5.60
2018-07-14T22:07:49.383Z,3.83
2018-07-14T22:12:53.417Z,5.73
2018-07-14T22:17:56.914Z,4.83
2018-07-14T22:23:00.469Z,5.23
2018-07-14T22:28:04.023Z,4.83
2018-07-14T22:33:08.116Z,6.07
2018-07-14T22:38:11.612Z,6.67
2018-07-14T22:43:15.275Z,6.07
2018-07-14T22:48:19.352Z,6.70
2018-07-14T22:53:23.170Z,5.77
2018-07-14T22:58:27.432Z,5.53
2018-07-14T23:03:31.129Z,5.63
2018-07-14T23:08:35.223Z,6.37
2018-07-14T23:13:39.956Z,5.33
2018-07-14T23:18:43.471Z,6.17
2018-07-14T23:23:47.038Z,6.93
2018-07-14T23:28:50.736Z,6.50
2018-07-14T23:33:54.249Z,6.10
2018-07-14T23:38:58.560Z,6.57
2018-07-14T23:44:02.095Z,6.27
2018-07-14T23:49:07.008Z,6.47
2018-07-14T23:54:10.531Z,5.87
2018-07-14T23:59:14.514Z,6.33
